createdAt,value
2019-05-09T00:00:19.021Z,0.77
2019-05-09T00:01:40.547Z,0.90
2019-05-09T00:03:03.485Z,0.80
2019-05-09T00:04:25.479Z,1.00
2019-05-09T00:05:46.723Z,0.80
2019-05-09T00:07:08.378Z,1.07
2019-05-09T00:08:29.686Z,1.00
2019-05-09T00:09:53.214Z,0.93
2019-05-09T00:11:14.719Z,0.87
2019-05-09T00:12:36.298Z,0.90
2019-05-09T00:13:57.855Z,1.00
2019-05-09T00:15:19.532Z,1.03
2019-05-09T00:16:40.886Z,1.10
2019-05-09T00:18:03.918Z,0.80
2019-05-09T00:19:25.162Z,0.83
2019-05-09T00:20:46.651Z,0.93
2019-05-09T00:22:08.294Z,1.00
2019-05-09T00:23:29.903Z,0.90
2019-05-09T00:24:53.791Z,0.87
2019-05-09T00:26:14.223Z,0.90
2019-05-09T00:27:36.077Z,0.97
2019-05-09T00:28:58.075Z,0.97
2019-05-09T00:30:19.675Z,0.80
2019-05-09T00:31:41.053Z,0.90
2019-05-09T00:33:03.806Z,0.90
2019-05-09T00:34:25.368Z,0.80
2019-05-09T00:35:47.086Z,0.70
2019-05-09T00:37:08.631Z,0.93
2019-05-09T00:38:30.395Z,0.80
2019-05-09T00:39:53.334Z,0.90
2019-05-09T00:41:15.063Z,0.93
2019-05-09T00:42:36.686Z,0.87
2019-05-09T00:43:58.351Z,0.80
2019-05-09T00:45:19.793Z,0.73
2019-05-09T00:46:43.077Z,0.63
2019-05-09T00:48:04.100Z,0.97
2019-05-09T00:49:25.699Z,0.73
2019-05-09T00:50:47.395Z,1.00
2019-05-09T00:52:08.738Z,0.80
2019-05-09T00:53:30.187Z,1.00
2019-05-09T00:54:53.152Z,0.80
2019-05-09T00:56:14.479Z,0.80
2019-05-09T00:57:35.871Z,0.73
2019-05-09T00:58:57.491Z,0.80
2019-05-09T01:00:19.060Z,0.90
2019-05-09T01:01:40.746Z,0.80
2019-05-09T01:03:03.594Z,0.80
2019-05-09T01:04:25.167Z,0.80
2019-05-09T01:05:47.570Z,0.70
2019-05-09T01:07:09.363Z,0.90
2019-05-09T01:08:30.828Z,0.93
2019-05-09T01:09:54.230Z,1.00
2019-05-09T01:11:15.650Z,1.10
2019-05-09T01:12:36.768Z,0.90
2019-05-09T01:13:58.563Z,0.77
2019-05-09T01:15:20.353Z,0.80
2019-05-09T01:16:43.807Z,1.10
2019-05-09T01:18:04.824Z,0.97
2019-05-09T01:19:26.507Z,1.00
2019-05-09T01:20:48.127Z,0.87
2019-05-09T01:22:09.350Z,0.80
2019-05-09T01:23:30.939Z,0.80
2019-05-09T01:24:53.408Z,0.83
2019-05-09T01:26:14.860Z,1.00
2019-05-09T01:27:36.239Z,0.87
2019-05-09T01:28:57.798Z,0.80
2019-05-09T01:30:19.443Z,0.80
2019-05-09T01:31:43.404Z,0.90
2019-05-09T01:33:04.012Z,0.90
2019-05-09T01:34:25.552Z,0.80
2019-05-09T01:35:47.299Z,0.90
2019-05-09T01:37:08.935Z,1.10
2019-05-09T01:38:30.666Z,0.93
2019-05-09T01:39:53.443Z,1.00
2019-05-09T01:41:27.136Z,1.00
2019-05-09T01:42:38.018Z,1.03
2019-05-09T01:43:59.448Z,0.63
2019-05-09T01:45:20.979Z,1.00
2019-05-09T01:46:43.623Z,0.90
2019-05-09T01:48:05.027Z,1.00
2019-05-09T01:49:26.495Z,0.77
2019-05-09T01:50:47.763Z,0.77
2019-05-09T01:52:09.340Z,0.70
2019-05-09T01:53:33.324Z,0.77
2019-05-09T01:54:54.200Z,0.83
2019-05-09T01:56:15.664Z,0.90
2019-05-09T01:57:36.966Z,0.83
2019-05-09T01:58:58.492Z,0.67
2019-05-09T02:00:20.126Z,0.70
2019-05-09T02:01:43.458Z,1.00
2019-05-09T02:03:04.846Z,0.93
2019-05-09T02:04:26.463Z,0.70
2019-05-09T02:05:47.855Z,0.80
2019-05-09T02:07:09.518Z,0.63
2019-05-09T02:08:31.107Z,0.83
2019-05-09T02:09:53.981Z,0.67
2019-05-09T02:11:15.512Z,0.93
2019-05-09T02:12:36.953Z,0.70
2019-05-09T02:13:58.427Z,0.77
2019-05-09T02:15:19.819Z,0.80
2019-05-09T02:16:43.258Z,0.70
2019-05-09T02:18:05.228Z,0.87
2019-05-09T02:19:26.712Z,0.60
2019-05-09T02:20:48.323Z,1.00
2019-05-09T02:22:09.699Z,0.80
2019-05-09T02:23:30.983Z,0.77
2019-05-09T02:24:53.493Z,0.80
2019-05-09T02:26:15.134Z,0.80
2019-05-09T02:27:36.745Z,0.77
2019-05-09T02:28:58.542Z,0.83
2019-05-09T02:30:20.221Z,1.00
2019-05-09T02:31:44.596Z,0.70
2019-05-09T02:33:05.212Z,0.90
2019-05-09T02:34:26.568Z,0.80
2019-05-09T02:35:56.829Z,0.90
2019-05-09T02:37:10.685Z,0.77
2019-05-09T02:38:32.029Z,1.07
2019-05-09T02:39:53.863Z,0.83
2019-05-09T02:41:15.473Z,0.80
2019-05-09T02:42:39.704Z,0.73
2019-05-09T02:43:59.597Z,0.73
2019-05-09T02:45:21.196Z,1.00
2019-05-09T02:46:42.829Z,0.90
2019-05-09T02:48:04.570Z,0.90
2019-05-09T02:49:28.454Z,0.97
2019-05-09T02:50:48.877Z,0.90
2019-05-09T02:52:10.326Z,0.83
2019-05-09T02:53:31.908Z,0.70
2019-05-09T02:54:53.224Z,0.60
2019-05-09T02:56:14.882Z,0.80
2019-05-09T02:57:37.523Z,0.70
2019-05-09T02:58:59.116Z,0.90
2019-05-09T03:00:20.595Z,0.90
2019-05-09T03:01:41.818Z,0.80
2019-05-09T03:03:03.335Z,1.10
2019-05-09T03:04:28.154Z,0.80
2019-05-09T03:05:48.852Z,0.90
2019-05-09T03:07:10.594Z,1.07
2019-05-09T03:08:32.223Z,0.70
2019-05-09T03:09:53.701Z,0.77
2019-05-09T03:11:18.546Z,0.90
2019-05-09T03:12:39.877Z,0.60
2019-05-09T03:14:01.163Z,0.80
2019-05-09T03:15:22.925Z,0.70
2019-05-09T03:16:44.332Z,0.90
2019-05-09T03:18:08.534Z,0.90
2019-05-09T03:19:29.668Z,0.83
2019-05-09T03:20:51.544Z,0.90
2019-05-09T03:22:12.960Z,0.67
2019-05-09T03:23:35.047Z,0.70
2019-05-09T03:24:58.842Z,0.70
2019-05-09T03:26:19.724Z,0.57
2019-05-09T03:27:41.465Z,1.07
2019-05-09T03:29:03.104Z,0.83
2019-05-09T03:30:24.527Z,0.80
2019-05-09T03:31:49.782Z,0.80
2019-05-09T03:33:10.239Z,0.67
2019-05-09T03:34:32.254Z,0.73
2019-05-09T03:35:53.658Z,0.77
2019-05-09T03:37:15.000Z,1.00
2019-05-09T03:38:37.727Z,0.60
2019-05-09T03:39:59.386Z,0.70
2019-05-09T03:41:21.273Z,0.70
2019-05-09T03:42:43.755Z,0.57
2019-05-09T03:44:07.214Z,0.70
2019-05-09T03:45:28.153Z,0.73
2019-05-09T03:46:49.686Z,0.90
2019-05-09T03:48:11.403Z,0.77
2019-05-09T03:49:32.704Z,0.77
2019-05-09T03:50:54.304Z,0.70
2019-05-09T03:52:17.762Z,0.83
2019-05-09T03:53:38.887Z,0.77
2019-05-09T03:55:00.511Z,0.67
2019-05-09T03:56:21.726Z,0.60
2019-05-09T03:57:43.442Z,0.80
2019-05-09T03:59:05.074Z,0.60
2019-05-09T04:00:28.327Z,0.70
2019-05-09T04:01:50.283Z,0.63
2019-05-09T04:03:12.395Z,0.67
2019-05-09T04:04:33.790Z,0.80
2019-05-09T04:05:59.937Z,0.80
2019-05-09T04:07:18.674Z,0.80
2019-05-09T04:08:40.422Z,0.73
2019-05-09T04:10:02.211Z,0.80
2019-05-09T04:11:23.967Z,0.70
2019-05-09T04:12:55.561Z,0.73
2019-05-09T04:14:08.837Z,0.80
2019-05-09T04:15:30.203Z,0.70
2019-05-09T04:16:51.820Z,1.00
2019-05-09T04:18:13.445Z,0.80
2019-05-09T04:19:35.084Z,0.77
2019-05-09T04:20:57.339Z,0.70
2019-05-09T04:22:18.753Z,0.60
2019-05-09T04:23:40.041Z,0.70
2019-05-09T04:25:01.639Z,0.80
2019-05-09T04:26:23.563Z,0.70
2019-05-09T04:27:45.298Z,0.60
2019-05-09T04:29:08.125Z,0.80
2019-05-09T04:30:29.764Z,0.77
2019-05-09T04:31:51.616Z,0.77
2019-05-09T04:33:13.183Z,0.80
2019-05-09T04:34:34.552Z,0.70
2019-05-09T04:35:57.775Z,0.70
2019-05-09T04:37:18.949Z,0.60
2019-05-09T04:38:40.311Z,0.70
2019-05-09T04:40:03.416Z,0.80
2019-05-09T04:41:25.419Z,0.60
2019-05-09T04:42:47.420Z,0.80
2019-05-09T04:44:16.638Z,0.70
2019-05-09T04:45:33.138Z,0.57
2019-05-09T04:46:59.097Z,0.87
2019-05-09T04:48:20.325Z,0.70
2019-05-09T04:49:44.954Z,0.60
2019-05-09T04:51:04.632Z,0.73
2019-05-09T04:52:27.908Z,0.70
2019-05-09T04:53:49.308Z,0.70
2019-05-09T04:55:10.794Z,0.70
2019-05-09T04:56:32.062Z,0.60
2019-05-09T04:57:53.638Z,0.67
2019-05-09T04:59:15.203Z,0.80
2019-05-09T05:00:37.727Z,0.73
2019-05-09T05:01:59.033Z,0.60
2019-05-09T05:03:20.739Z,0.70
2019-05-09T05:04:42.159Z,0.80
2019-05-09T05:06:03.589Z,0.73
2019-05-09T05:07:25.183Z,0.70
2019-05-09T05:08:47.891Z,0.70
2019-05-09T05:10:10.037Z,0.80
2019-05-09T05:11:31.455Z,0.60
2019-05-09T05:12:52.683Z,0.83
2019-05-09T05:14:14.043Z,0.67
2019-05-09T05:15:37.692Z,0.70
2019-05-09T05:17:07.387Z,0.60
2019-05-09T05:18:22.175Z,0.80
2019-05-09T05:19:44.083Z,0.73
2019-05-09T05:21:07.856Z,0.73
2019-05-09T05:22:29.076Z,0.80
2019-05-09T05:23:50.736Z,0.93
2019-05-09T05:25:12.600Z,0.90
2019-05-09T05:26:33.947Z,1.13
2019-05-09T05:27:57.923Z,0.80
2019-05-09T05:29:18.319Z,0.90
2019-05-09T05:30:39.656Z,0.87
2019-05-09T05:32:01.255Z,1.00
2019-05-09T05:33:22.646Z,1.10
2019-05-09T05:34:44.290Z,0.80
2019-05-09T05:36:07.753Z,0.83
2019-05-09T05:37:29.210Z,1.03
2019-05-09T05:38:51.431Z,1.03
2019-05-09T05:40:12.799Z,1.00
2019-05-09T05:41:34.473Z,1.10
2019-05-09T05:42:58.467Z,0.77
2019-05-09T05:44:19.305Z,1.10
2019-05-09T05:45:40.935Z,1.00
2019-05-09T05:47:02.444Z,1.10
2019-05-09T05:48:24.044Z,1.33
2019-05-09T05:49:45.510Z,1.20
2019-05-09T05:51:08.114Z,1.00
2019-05-09T05:52:29.767Z,1.00
2019-05-09T05:53:51.323Z,0.90
2019-05-09T05:55:13.086Z,1.10
2019-05-09T05:56:34.459Z,1.10
2019-05-09T05:57:57.944Z,0.93
2019-05-09T05:59:18.929Z,0.90
2019-05-09T06:00:40.391Z,0.83
2019-05-09T06:02:01.691Z,1.20
2019-05-09T06:03:23.243Z,1.10
2019-05-09T06:04:44.803Z,1.10
2019-05-09T06:06:08.603Z,1.00
2019-05-09T06:07:29.375Z,1.40
2019-05-09T06:08:50.925Z,0.87
2019-05-09T06:10:12.212Z,0.90
2019-05-09T06:11:33.792Z,0.80
2019-05-09T06:12:57.444Z,1.00
2019-05-09T06:14:18.711Z,1.00
2019-05-09T06:15:40.236Z,0.90
2019-05-09T06:17:01.701Z,1.00
2019-05-09T06:18:23.429Z,0.93
2019-05-09T06:19:45.071Z,1.60
2019-05-09T06:21:08.780Z,1.80
2019-05-09T06:22:29.650Z,1.70
2019-05-09T06:23:51.106Z,1.53
2019-05-09T06:25:12.489Z,1.43
2019-05-09T06:26:34.110Z,1.27
2019-05-09T06:27:58.245Z,1.50
2019-05-09T06:29:19.192Z,1.23
2019-05-09T06:30:41.160Z,1.47
2019-05-09T06:32:02.635Z,1.00
2019-05-09T06:33:23.932Z,1.00
2019-05-09T06:34:47.720Z,1.00
2019-05-09T06:36:09.536Z,0.90
2019-05-09T06:37:31.114Z,1.20
2019-05-09T06:38:52.620Z,1.10
2019-05-09T06:40:21.282Z,1.40
2019-05-09T06:41:41.056Z,1.00
2019-05-09T06:43:02.279Z,2.03
2019-05-09T06:44:24.099Z,1.20
2019-05-09T06:45:45.600Z,1.13
2019-05-09T06:47:08.274Z,0.93
2019-05-09T06:48:29.950Z,1.20
2019-05-09T06:49:51.807Z,0.90
2019-05-09T06:51:13.443Z,1.30
2019-05-09T06:52:34.791Z,0.90
2019-05-09T06:53:58.379Z,1.27
2019-05-09T06:55:19.398Z,1.23
2019-05-09T06:56:40.750Z,1.20
2019-05-09T06:58:02.497Z,1.30
2019-05-09T06:59:24.072Z,1.40
2019-05-09T07:00:45.695Z,1.00
2019-05-09T07:02:08.208Z,0.97
2019-05-09T07:03:29.794Z,1.07
2019-05-09T07:04:51.694Z,1.10
2019-05-09T07:06:13.371Z,1.00
2019-05-09T07:07:37.315Z,1.20
2019-05-09T07:08:58.593Z,1.30
2019-05-09T07:10:20.104Z,1.50
2019-05-09T07:11:41.405Z,1.20
2019-05-09T07:13:03.010Z,1.07
2019-05-09T07:14:29.021Z,1.30
2019-05-09T07:15:49.512Z,1.10
2019-05-09T07:17:11.139Z,1.17
2019-05-09T07:18:32.444Z,1.30
2019-05-09T07:19:53.867Z,1.10
2019-05-09T07:21:15.316Z,0.80
2019-05-09T07:22:39.191Z,1.13
2019-05-09T07:24:00.195Z,1.13
2019-05-09T07:25:21.714Z,0.90
2019-05-09T07:26:43.059Z,0.90
2019-05-09T07:28:04.660Z,1.03
2019-05-09T07:29:28.415Z,1.30
2019-05-09T07:30:49.431Z,1.00
2019-05-09T07:32:11.907Z,1.00
2019-05-09T07:33:33.930Z,0.93
2019-05-09T07:34:57.775Z,0.63
2019-05-09T07:36:19.041Z,1.07
2019-05-09T07:37:40.366Z,1.23
2019-05-09T07:39:01.646Z,1.20
2019-05-09T07:40:26.681Z,1.00
2019-05-09T07:41:47.808Z,0.87
2019-05-09T07:43:09.264Z,0.80
2019-05-09T07:44:45.365Z,1.10
2019-05-09T07:45:53.343Z,0.80
2019-05-09T07:47:14.682Z,1.03
2019-05-09T07:48:38.143Z,1.20
2019-05-09T07:49:58.916Z,0.83
2019-05-09T07:51:20.616Z,0.73
2019-05-09T07:52:42.235Z,1.30
2019-05-09T07:54:18.229Z,1.10
2019-05-09T07:55:27.535Z,1.13
2019-05-09T07:56:48.694Z,0.80
2019-05-09T07:58:09.947Z,1.10
2019-05-09T07:59:31.609Z,0.80
2019-05-09T08:00:53.030Z,0.80
2019-05-09T08:02:14.415Z,0.80
2019-05-09T08:03:38.437Z,0.97
2019-05-09T08:04:59.892Z,1.00
2019-05-09T08:06:21.325Z,1.07
2019-05-09T08:07:43.428Z,1.10
2019-05-09T08:09:08.357Z,1.40
2019-05-09T08:10:32.922Z,1.07
2019-05-09T08:11:51.939Z,1.00
2019-05-09T08:13:13.599Z,0.60
2019-05-09T08:14:37.531Z,1.00
2019-05-09T08:15:58.651Z,0.90
2019-05-09T08:17:20.194Z,0.97
2019-05-09T08:18:41.699Z,1.00
2019-05-09T08:20:04.317Z,0.90
2019-05-09T08:21:27.703Z,0.93
2019-05-09T08:22:57.662Z,0.87
2019-05-09T08:24:12.630Z,1.10
2019-05-09T08:25:34.231Z,1.20
2019-05-09T08:26:58.005Z,1.43
2019-05-09T08:28:20.146Z,0.80
2019-05-09T08:29:42.063Z,0.87
2019-05-09T08:31:03.691Z,1.10
2019-05-09T08:32:25.279Z,1.10
2019-05-09T08:33:48.469Z,1.10
2019-05-09T08:35:10.191Z,0.90
2019-05-09T08:36:31.955Z,0.83
2019-05-09T08:37:53.184Z,0.90
2019-05-09T08:39:14.963Z,0.90
2019-05-09T08:40:38.235Z,0.97
2019-05-09T08:41:59.775Z,1.10
2019-05-09T08:43:21.383Z,0.67
2019-05-09T08:44:43.180Z,1.17
2019-05-09T08:46:04.944Z,1.00
2019-05-09T08:47:28.347Z,1.00
2019-05-09T08:48:49.704Z,0.80
2019-05-09T08:50:11.411Z,0.93
2019-05-09T08:51:36.787Z,1.10
2019-05-09T08:52:57.586Z,1.10
2019-05-09T08:54:19.044Z,1.10
2019-05-09T08:55:40.635Z,0.90
2019-05-09T08:57:02.351Z,1.30
2019-05-09T08:58:24.867Z,1.40
2019-05-09T08:59:49.709Z,0.90
2019-05-09T09:01:11.277Z,1.00
2019-05-09T09:02:31.995Z,0.93
2019-05-09T09:03:53.302Z,1.07
2019-05-09T09:05:14.854Z,0.97
2019-05-09T09:06:37.989Z,1.27
2019-05-09T09:07:59.369Z,0.80
2019-05-09T09:09:21.004Z,0.87
2019-05-09T09:10:42.327Z,1.07
2019-05-09T09:12:03.880Z,1.23
2019-05-09T09:13:25.643Z,1.20
2019-05-09T09:14:47.831Z,0.93
2019-05-09T09:16:18.492Z,0.97
2019-05-09T09:17:32.387Z,1.47
2019-05-09T09:18:54.114Z,1.00
2019-05-09T09:20:17.903Z,1.10
2019-05-09T09:21:38.809Z,1.00
2019-05-09T09:23:00.115Z,0.77
2019-05-09T09:24:21.590Z,1.23
2019-05-09T09:25:43.294Z,0.87
2019-05-09T09:27:04.843Z,0.93
2019-05-09T09:28:27.626Z,0.90
2019-05-09T09:29:49.103Z,1.00
2019-05-09T09:31:10.763Z,0.97
2019-05-09T09:32:32.355Z,1.00
2019-05-09T09:33:53.866Z,1.17
2019-05-09T09:35:15.486Z,0.90
2019-05-09T09:36:39.092Z,1.00
2019-05-09T09:38:00.160Z,0.83
2019-05-09T09:39:21.416Z,0.90
2019-05-09T09:40:43.015Z,1.30
2019-05-09T09:42:04.607Z,0.70
2019-05-09T09:43:27.982Z,1.00
2019-05-09T09:44:48.867Z,0.60
2019-05-09T09:46:14.664Z,0.90
2019-05-09T09:47:33.725Z,0.70
2019-05-09T09:48:55.229Z,1.03
2019-05-09T09:50:17.700Z,1.00
2019-05-09T09:51:39.320Z,0.93
2019-05-09T09:53:01.211Z,0.97
2019-05-09T09:54:22.828Z,1.20
2019-05-09T09:55:44.211Z,0.87
2019-05-09T09:57:05.899Z,0.93
2019-05-09T09:58:27.437Z,1.03
2019-05-09T09:59:48.867Z,0.90
2019-05-09T10:01:10.100Z,0.83
2019-05-09T10:02:31.799Z,0.80
2019-05-09T10:03:53.460Z,1.27
2019-05-09T10:05:14.968Z,1.00
2019-05-09T10:06:38.810Z,0.73
2019-05-09T10:07:59.424Z,0.50
2019-05-09T10:09:21.126Z,1.10
2019-05-09T10:10:42.697Z,0.90
2019-05-09T10:12:03.988Z,0.83
2019-05-09T10:13:25.547Z,0.73
2019-05-09T10:14:47.026Z,1.00
2019-05-09T10:16:24.569Z,0.90
2019-05-09T10:17:31.629Z,1.00
2019-05-09T10:18:53.334Z,0.97
2019-05-09T10:20:14.826Z,0.87
2019-05-09T10:21:38.245Z,0.90
2019-05-09T10:23:10.067Z,1.10
2019-05-09T10:24:22.092Z,1.00
2019-05-09T10:25:43.768Z,0.90
2019-05-09T10:27:08.279Z,1.10
2019-05-09T10:28:30.077Z,0.90
2019-05-09T10:29:50.874Z,0.83
2019-05-09T10:31:12.804Z,1.10
2019-05-09T10:32:34.122Z,1.30
2019-05-09T10:33:57.839Z,1.93
2019-05-09T10:35:22.227Z,1.23
2019-05-09T10:36:43.699Z,1.37
2019-05-09T10:38:08.470Z,1.33
2019-05-09T10:39:28.153Z,0.90
2019-05-09T10:40:53.159Z,0.90
2019-05-09T10:42:12.756Z,1.00
2019-05-09T10:43:38.669Z,1.07
2019-05-09T10:44:58.226Z,1.00
2019-05-09T10:46:20.014Z,1.27
2019-05-09T10:47:41.759Z,1.20
2019-05-09T10:49:03.421Z,1.00
2019-05-09T10:50:24.835Z,1.30
2019-05-09T10:51:48.366Z,1.00
2019-05-09T10:53:09.107Z,1.30
2019-05-09T10:54:30.835Z,1.23
2019-05-09T10:55:52.528Z,0.83
2019-05-09T10:59:30.751Z,0.93
2019-05-09T11:01:14.238Z,0.70
2019-05-09T11:02:36.468Z,0.77
2019-05-09T11:03:58.869Z,0.93
2019-05-09T11:05:20.896Z,0.90
2019-05-09T11:06:42.115Z,1.00
2019-05-09T11:08:03.852Z,1.10
2019-05-09T11:09:25.445Z,1.07
2019-05-09T11:10:47.556Z,0.80
2019-05-09T11:12:09.227Z,1.07
2019-05-09T11:13:30.592Z,0.80
2019-05-09T11:14:52.159Z,0.70
2019-05-09T11:16:13.511Z,1.07
2019-05-09T11:17:35.260Z,0.80
2019-05-09T11:18:58.482Z,0.80
2019-05-09T11:20:19.747Z,0.97
2019-05-09T11:21:41.184Z,1.17
2019-05-09T11:23:02.964Z,0.87
2019-05-09T11:24:38.850Z,1.13
2019-05-09T11:25:47.618Z,0.83
2019-05-09T11:27:08.784Z,1.27
2019-05-09T11:28:30.371Z,0.87
2019-05-09T11:29:52.115Z,1.13
2019-05-09T11:31:13.661Z,1.00
2019-05-09T11:32:35.157Z,1.20
2019-05-09T11:33:57.848Z,1.47
2019-05-09T11:35:19.559Z,1.20
2019-05-09T11:36:41.123Z,1.03
2019-05-09T11:38:02.611Z,0.97
2019-05-09T11:39:35.709Z,1.20
2019-05-09T11:40:48.315Z,0.83
2019-05-09T11:42:10.194Z,1.30
2019-05-09T11:43:31.764Z,1.00
2019-05-09T11:44:53.293Z,1.00
2019-05-09T11:46:14.890Z,1.33
2019-05-09T11:47:42.572Z,0.67
2019-05-09T11:48:59.898Z,0.80
2019-05-09T11:50:23.134Z,0.70
2019-05-09T11:51:44.211Z,0.90
2019-05-09T11:53:05.627Z,0.60
2019-05-09T11:54:27.935Z,1.13
2019-05-09T11:55:49.304Z,0.60
2019-05-09T11:57:11.008Z,0.87
2019-05-09T11:58:32.654Z,0.97
2019-05-09T11:59:54.203Z,0.73
2019-05-09T12:01:15.431Z,1.00
2019-05-09T12:02:38.455Z,1.00
2019-05-09T12:04:00.088Z,0.70
2019-05-09T12:05:21.532Z,1.03
2019-05-09T12:06:42.900Z,0.77
2019-05-09T12:08:04.794Z,0.90
2019-05-09T12:09:28.592Z,2.80
2019-05-09T12:10:48.987Z,4.60
2019-05-09T12:12:10.637Z,3.10
2019-05-09T12:13:32.079Z,4.00
2019-05-09T12:14:53.362Z,2.87
2019-05-09T12:16:15.016Z,3.53
2019-05-09T12:17:52.943Z,3.37
2019-05-09T12:18:59.428Z,3.73
2019-05-09T12:20:21.206Z,4.10
2019-05-09T12:21:47.915Z,3.43
2019-05-09T12:23:07.765Z,3.40
2019-05-09T12:24:29.623Z,4.07
2019-05-09T12:25:51.227Z,3.33
2019-05-09T12:27:12.799Z,1.50
2019-05-09T12:28:34.355Z,1.90
2019-05-09T12:29:58.181Z,1.60
2019-05-09T12:31:19.183Z,0.70
2019-05-09T12:32:40.648Z,0.90
2019-05-09T12:34:02.113Z,1.07
2019-05-09T12:35:23.668Z,0.77
2019-05-09T12:36:45.302Z,0.60
2019-05-09T12:38:08.339Z,0.80
2019-05-09T12:39:30.231Z,0.80
2019-05-09T12:40:51.865Z,0.80
2019-05-09T12:42:13.228Z,0.97
2019-05-09T12:43:34.743Z,1.00
2019-05-09T12:44:58.777Z,0.70
2019-05-09T12:46:19.896Z,0.80
2019-05-09T12:47:41.139Z,0.80
2019-05-09T12:49:02.404Z,0.60
2019-05-09T12:50:23.843Z,0.57
2019-05-09T12:51:45.177Z,1.17
2019-05-09T12:53:06.949Z,0.87
2019-05-09T12:54:28.344Z,0.90
2019-05-09T12:55:50.076Z,0.80
2019-05-09T12:57:11.659Z,0.90
2019-05-09T12:58:33.299Z,0.70
2019-05-09T12:59:55.098Z,0.70
2019-05-09T13:01:18.826Z,0.80
2019-05-09T13:02:39.204Z,0.80
2019-05-09T13:04:00.520Z,1.10
2019-05-09T13:05:21.995Z,0.53
2019-05-09T13:06:43.346Z,0.53
2019-05-09T13:08:04.837Z,0.70
2019-05-09T13:09:28.598Z,0.83
2019-05-09T13:10:49.432Z,0.63
2019-05-09T13:12:10.747Z,0.53
2019-05-09T13:13:32.471Z,0.80
2019-05-09T13:14:53.705Z,0.73
2019-05-09T13:16:17.544Z,0.73
2019-05-09T13:17:38.865Z,0.70
2019-05-09T13:19:02.442Z,0.67
2019-05-09T13:20:23.134Z,0.90
2019-05-09T13:21:44.612Z,0.80
2019-05-09T13:23:08.705Z,0.80
2019-05-09T13:24:29.376Z,0.50
2019-05-09T13:25:51.063Z,0.77
2019-05-09T13:27:12.790Z,0.80
2019-05-09T13:28:34.157Z,0.80
2019-05-09T13:29:55.835Z,0.73
2019-05-09T13:31:18.203Z,0.57
2019-05-09T13:32:39.767Z,0.70
2019-05-09T13:34:01.133Z,0.50
2019-05-09T13:35:22.508Z,0.97
2019-05-09T13:36:44.075Z,0.87
2019-05-09T13:38:08.489Z,0.60
2019-05-09T13:39:28.507Z,0.60
2019-05-09T13:40:53.538Z,0.87
2019-05-09T13:42:12.688Z,0.80
2019-05-09T13:43:34.051Z,0.60
2019-05-09T13:44:55.743Z,0.80
2019-05-09T13:46:18.053Z,0.60
2019-05-09T13:47:39.654Z,0.60
2019-05-09T13:49:11.505Z,0.90
2019-05-09T13:50:25.159Z,0.70
2019-05-09T13:51:54.875Z,0.60
2019-05-09T13:53:09.691Z,0.80
2019-05-09T13:54:31.588Z,0.80
2019-05-09T13:55:53.271Z,0.70
2019-05-09T13:57:14.923Z,0.60
2019-05-09T13:58:38.283Z,0.60
2019-05-09T13:59:59.761Z,0.70
2019-05-09T14:01:21.329Z,0.60
2019-05-09T14:02:45.135Z,0.70
2019-05-09T14:04:07.988Z,0.87
2019-05-09T14:05:29.281Z,0.90
2019-05-09T14:06:51.064Z,0.70
2019-05-09T14:08:12.811Z,1.00
2019-05-09T14:09:34.370Z,0.70
2019-05-09T14:10:55.596Z,0.50
2019-05-09T14:12:17.843Z,1.03
2019-05-09T14:13:39.231Z,0.90
2019-05-09T14:15:00.727Z,0.70
2019-05-09T14:16:22.587Z,0.70
2019-05-09T14:17:49.546Z,0.73
2019-05-09T14:19:25.999Z,0.90
2019-05-09T14:20:29.512Z,0.60
2019-05-09T14:21:50.970Z,0.80
2019-05-09T14:23:12.754Z,0.87
2019-05-09T14:24:34.287Z,0.40
2019-05-09T14:25:58.853Z,0.73
2019-05-09T14:27:18.844Z,0.67
2019-05-09T14:28:40.635Z,0.90
2019-05-09T14:30:02.726Z,0.50
2019-05-09T14:31:28.964Z,0.70
2019-05-09T14:32:49.716Z,0.70
2019-05-09T14:34:11.383Z,0.80
2019-05-09T14:35:33.100Z,0.70
2019-05-09T14:36:54.654Z,1.00
2019-05-09T14:38:18.301Z,0.60
2019-05-09T14:39:54.397Z,0.50
2019-05-09T14:41:01.955Z,0.87
2019-05-09T14:42:23.392Z,0.70
2019-05-09T14:43:44.703Z,0.90
2019-05-09T14:45:08.455Z,0.80
2019-05-09T14:46:29.074Z,0.80
2019-05-09T14:47:50.431Z,0.50
2019-05-09T14:49:12.002Z,0.63
2019-05-09T14:50:33.620Z,0.80
2019-05-09T14:51:57.781Z,0.87
2019-05-09T14:53:18.292Z,0.60
2019-05-09T14:54:39.634Z,1.00
2019-05-09T14:56:02.042Z,0.97
2019-05-09T14:57:23.688Z,0.70
2019-05-09T14:58:45.319Z,0.70
2019-05-09T15:00:07.886Z,0.70
2019-05-09T15:01:29.523Z,0.60
2019-05-09T15:02:51.153Z,0.57
2019-05-09T15:04:12.887Z,0.60
2019-05-09T15:05:34.254Z,0.60
2019-05-09T15:06:57.733Z,0.70
2019-05-09T15:08:18.807Z,0.53
2019-05-09T15:09:40.395Z,0.70
2019-05-09T15:11:02.063Z,0.53
2019-05-09T15:12:23.380Z,0.80
2019-05-09T15:13:47.558Z,0.50
2019-05-09T15:15:08.154Z,0.63
2019-05-09T15:16:29.772Z,0.77
2019-05-09T15:17:51.172Z,1.07
2019-05-09T15:19:12.997Z,0.60
2019-05-09T15:20:34.595Z,0.93
2019-05-09T15:21:57.847Z,0.70
2019-05-09T15:23:19.776Z,0.90
2019-05-09T15:24:41.563Z,0.93
2019-05-09T15:26:03.491Z,0.90
2019-05-09T15:27:24.823Z,0.93
2019-05-09T15:28:48.171Z,0.90
2019-05-09T15:30:09.504Z,0.67
2019-05-09T15:31:30.860Z,0.80
2019-05-09T15:32:52.298Z,0.83
2019-05-09T15:34:13.913Z,0.90
2019-05-09T15:35:35.368Z,1.20
2019-05-09T15:36:58.336Z,0.90
2019-05-09T15:38:22.373Z,0.70
2019-05-09T15:39:42.759Z,0.77
2019-05-09T15:41:04.731Z,0.70
2019-05-09T15:42:26.046Z,1.10
2019-05-09T15:43:48.553Z,0.70
2019-05-09T15:45:10.039Z,0.60
2019-05-09T15:46:31.477Z,0.70
2019-05-09T15:47:53.047Z,0.63
2019-05-09T15:49:14.391Z,0.63
2019-05-09T15:50:37.993Z,0.63
2019-05-09T15:51:58.983Z,0.70
2019-05-09T15:53:20.623Z,0.70
2019-05-09T15:54:42.128Z,0.70
2019-05-09T15:56:03.599Z,0.93
2019-05-09T15:57:27.406Z,0.60
2019-05-09T15:58:49.173Z,0.57
2019-05-09T16:00:10.999Z,0.60
2019-05-09T16:01:32.044Z,0.63
2019-05-09T16:02:53.693Z,0.70
2019-05-09T16:04:17.567Z,0.80
2019-05-09T16:05:38.595Z,0.60
2019-05-09T16:06:59.919Z,0.70
2019-05-09T16:08:21.507Z,0.80
2019-05-09T16:09:43.516Z,0.70
2019-05-09T16:11:04.920Z,0.70
2019-05-09T16:12:27.776Z,0.83
2019-05-09T16:13:49.439Z,0.63
2019-05-09T16:15:11.071Z,0.73
2019-05-09T16:16:32.761Z,0.80
2019-05-09T16:17:54.276Z,0.80
2019-05-09T16:19:15.623Z,0.70
2019-05-09T16:20:40.954Z,0.90
2019-05-09T16:22:02.100Z,0.77
2019-05-09T16:23:22.883Z,0.70
2019-05-09T16:24:44.219Z,0.60
2019-05-09T16:26:07.786Z,0.60
2019-05-09T16:27:28.614Z,0.70
2019-05-09T16:28:50.318Z,0.70
2019-05-09T16:30:11.552Z,0.80
2019-05-09T16:31:32.887Z,0.73
2019-05-09T16:32:54.676Z,0.80
2019-05-09T16:34:17.781Z,0.80
2019-05-09T16:35:38.895Z,0.53
2019-05-09T16:37:01.351Z,0.73
2019-05-09T16:38:23.068Z,0.40
2019-05-09T16:39:44.687Z,0.70
2019-05-09T16:41:07.696Z,0.60
2019-05-09T16:42:29.237Z,0.83
2019-05-09T16:43:51.047Z,0.87
2019-05-09T16:45:12.341Z,0.60
2019-05-09T16:46:34.080Z,0.77
2019-05-09T16:47:57.447Z,0.60
2019-05-09T16:49:19.951Z,0.53
2019-05-09T16:50:56.010Z,0.50
2019-05-09T16:52:04.496Z,0.43
2019-05-09T16:53:27.837Z,0.60
2019-05-09T16:54:50.124Z,0.70
2019-05-09T16:56:11.435Z,0.47
2019-05-09T16:57:33.068Z,0.50
2019-05-09T16:58:54.436Z,0.70
2019-05-09T17:00:30.640Z,0.50
2019-05-09T17:01:52.293Z,0.40
2019-05-09T17:03:13.819Z,0.73
2019-05-09T17:04:35.421Z,0.60
2019-05-09T17:05:58.285Z,0.67
2019-05-09T17:07:19.867Z,0.60
2019-05-09T17:08:41.483Z,0.53
2019-05-09T17:10:02.798Z,0.40
2019-05-09T17:11:27.653Z,0.90
2019-05-09T17:12:47.887Z,0.60
2019-05-09T17:14:09.658Z,0.70
2019-05-09T17:15:30.962Z,0.47
2019-05-09T17:16:53.176Z,0.60
2019-05-09T17:18:14.945Z,0.60
2019-05-09T17:19:37.778Z,0.47
2019-05-09T17:21:14.597Z,0.53
2019-05-09T17:22:22.079Z,0.63
2019-05-09T17:23:44.321Z,0.77
2019-05-09T17:25:07.859Z,0.50
2019-05-09T17:26:28.867Z,0.60
2019-05-09T17:27:50.508Z,0.70
2019-05-09T17:29:12.161Z,0.60
2019-05-09T17:30:33.768Z,0.50
2019-05-09T17:31:55.451Z,0.60
2019-05-09T17:33:16.731Z,0.60
2019-05-09T17:34:41.996Z,0.50
2019-05-09T17:36:01.716Z,0.70
2019-05-09T17:37:23.040Z,0.53
2019-05-09T17:38:44.335Z,0.50
2019-05-09T17:40:07.849Z,0.60
2019-05-09T17:41:28.705Z,0.53
2019-05-09T17:42:50.083Z,0.40
2019-05-09T17:44:11.994Z,0.50
2019-05-09T17:45:33.606Z,0.80
2019-05-09T17:46:54.991Z,0.70
2019-05-09T17:48:18.351Z,0.60
2019-05-09T17:49:39.247Z,0.40
2019-05-09T17:51:00.743Z,0.40
2019-05-09T17:52:22.171Z,0.50
2019-05-09T17:53:43.907Z,0.63
2019-05-09T17:55:07.380Z,0.50
2019-05-09T17:56:28.299Z,0.40
2019-05-09T17:57:49.892Z,0.53
2019-05-09T17:59:11.515Z,0.40
2019-05-09T18:00:33.667Z,0.50
2019-05-09T18:01:57.612Z,0.70
2019-05-09T18:03:18.475Z,0.60
2019-05-09T18:04:40.067Z,0.77
2019-05-09T18:06:01.633Z,0.60
2019-05-09T18:07:23.039Z,0.60
2019-05-09T18:08:44.570Z,0.60
2019-05-09T18:10:07.749Z,0.50
2019-05-09T18:11:29.432Z,0.60
2019-05-09T18:12:51.084Z,0.63